createdAt,value
2022-11-23T00:00:08.805Z,6.10
2022-11-23T00:02:35.922Z,6.10
2022-11-23T00:05:02.804Z,6.20
2022-11-23T00:07:29.717Z,6.20
2022-11-23T00:09:56.740Z,6.20
2022-11-23T00:12:23.605Z,6.20
2022-11-23T00:14:50.464Z,6.50
2022-11-23T00:17:17.296Z,6.20
2022-11-23T00:19:44.153Z,6.10
2022-11-23T00:22:13.430Z,6.30
2022-11-23T00:24:40.409Z,6.20
2022-11-23T00:27:07.271Z,5.80
2022-11-23T00:29:34.416Z,5.70
2022-11-23T00:32:01.263Z,5.60
2022-11-23T00:34:28.183Z,5.60
2022-11-23T00:36:55.045Z,5.50
2022-11-23T00:39:21.867Z,5.50
2022-11-23T00:41:48.709Z,5.40
2022-11-23T00:44:15.563Z,5.40
2022-11-23T00:46:42.448Z,5.30
2022-11-23T00:49:10.106Z,5.30
2022-11-23T00:51:37.672Z,5.20
2022-11-23T00:54:05.496Z,5.20
2022-11-23T00:56:34.397Z,5.20
2022-11-23T00:59:02.806Z,5.10
2022-11-23T01:01:34.095Z,5.20
2022-11-23T01:04:03.871Z,4.90
2022-11-23T01:06:37.588Z,5.20
2022-11-23T01:09:08.909Z,5.00
2022-11-23T01:11:35.837Z,5.30
2022-11-23T01:14:03.100Z,5.00
2022-11-23T01:16:33.094Z,5.10
2022-11-23T01:19:06.578Z,5.00
2022-11-23T01:21:34.965Z,4.90
2022-11-23T01:24:08.717Z,4.90
2022-11-23T01:26:35.626Z,4.90
2022-11-23T01:29:02.556Z,4.80
2022-11-23T01:31:29.551Z,4.80
2022-11-23T01:33:58.815Z,4.80
2022-11-23T01:36:32.129Z,4.70
2022-11-23T01:39:00.368Z,4.70
2022-11-23T01:41:33.380Z,5.00
2022-11-23T01:44:00.790Z,4.90
2022-11-23T01:46:27.803Z,4.70
2022-11-23T01:48:56.561Z,5.00
2022-11-23T01:51:37.230Z,4.80
2022-11-23T01:54:10.183Z,4.60
2022-11-23T01:56:41.233Z,5.00
2022-11-23T01:59:15.973Z,4.60
2022-11-23T02:01:43.889Z,4.60
2022-11-23T02:04:16.228Z,4.60
2022-11-23T02:06:46.542Z,4.50
2022-11-23T02:09:15.888Z,4.60
2022-11-23T02:11:43.067Z,4.50
2022-11-23T02:14:10.256Z,4.50
2022-11-23T02:16:38.306Z,4.80
2022-11-23T02:19:12.070Z,4.80
2022-11-23T02:21:40.616Z,4.50
2022-11-23T02:24:20.777Z,4.90
2022-11-23T02:26:48.027Z,4.80
2022-11-23T02:29:23.296Z,4.60
2022-11-23T02:31:50.264Z,4.60
2022-11-23T02:34:18.295Z,4.60
2022-11-23T02:36:47.826Z,4.60
2022-11-23T02:39:17.537Z,4.60
2022-11-23T02:41:53.470Z,4.60
2022-11-23T02:44:42.190Z,4.60
2022-11-23T02:47:10.350Z,4.60
2022-11-23T02:49:37.547Z,4.60
2022-11-23T02:52:04.764Z,4.60
2022-11-23T02:54:31.635Z,4.60
2022-11-23T02:56:58.561Z,4.70
2022-11-23T02:59:25.639Z,4.70
2022-11-23T03:01:52.782Z,4.70
2022-11-23T03:04:24.413Z,4.70
2022-11-23T03:06:54.499Z,4.80
2022-11-23T03:09:21.426Z,5.00
2022-11-23T03:11:48.364Z,4.90
2022-11-23T03:14:15.398Z,5.00
2022-11-23T03:16:42.326Z,5.10
2022-11-23T03:19:09.289Z,5.40
2022-11-23T03:21:36.872Z,5.30
2022-11-23T03:24:03.927Z,5.40
2022-11-23T03:26:30.856Z,5.50
2022-11-23T03:28:57.756Z,5.50
2022-11-23T03:31:24.590Z,5.60
2022-11-23T03:33:51.568Z,6.00
2022-11-23T03:36:18.465Z,5.70
2022-11-23T03:38:45.316Z,5.80
2022-11-23T03:41:12.127Z,5.80
2022-11-23T03:43:39.039Z,6.10
2022-11-23T03:46:06.037Z,6.10
2022-11-23T03:48:32.899Z,6.00
2022-11-23T03:50:59.870Z,6.30
2022-11-23T03:53:26.772Z,6.40
2022-11-23T03:56:12.495Z,6.10
2022-11-23T03:58:58.002Z,6.30
2022-11-23T04:01:43.769Z,6.10
2022-11-23T04:04:29.452Z,6.20
2022-11-23T04:07:15.491Z,6.20
2022-11-23T04:10:00.984Z,6.50
2022-11-23T04:12:51.196Z,6.20
2022-11-23T04:15:36.835Z,6.30
2022-11-23T04:18:22.520Z,6.40
2022-11-23T04:21:08.065Z,6.40
2022-11-23T04:23:53.684Z,6.40
2022-11-23T04:26:40.570Z,6.70
2022-11-23T04:29:26.003Z,6.50
2022-11-23T04:32:11.432Z,6.50
2022-11-23T04:34:56.994Z,6.50
2022-11-23T04:37:42.524Z,6.50
2022-11-23T04:40:28.977Z,6.50
2022-11-23T04:43:14.372Z,6.60
2022-11-23T04:46:00.131Z,6.60
2022-11-23T04:48:45.388Z,6.70
2022-11-23T04:51:31.047Z,6.90
2022-11-23T04:54:16.640Z,6.70
2022-11-23T04:57:02.265Z,6.80
2022-11-23T04:59:47.708Z,6.80
2022-11-23T05:02:33.248Z,6.80
2022-11-23T05:05:18.821Z,6.80
2022-11-23T05:08:04.833Z,6.80
2022-11-23T05:10:51.305Z,6.90
2022-11-23T05:13:36.951Z,6.90
2022-11-23T05:16:30.284Z,6.90
2022-11-23T09:23:49.694Z,8.60
2022-11-23T09:32:34.258Z,8.60
2022-11-23T09:35:02.101Z,8.70
2022-11-23T09:52:55.197Z,9.10
2022-11-23T09:55:47.181Z,9.30
2022-11-23T09:58:17.818Z,9.40
2022-11-23T10:00:56.528Z,9.70
2022-11-23T10:03:23.837Z,9.80
2022-11-23T10:06:04.252Z,10.00
2022-11-23T10:08:47.096Z,10.20
2022-11-23T10:14:22.458Z,10.30
2022-11-23T10:17:14.092Z,10.60
2022-11-23T10:20:00.049Z,10.80
2022-11-23T10:28:41.147Z,11.20
2022-11-23T10:31:16.451Z,11.30
2022-11-23T10:34:14.369Z,11.40
2022-11-23T10:36:41.814Z,11.60
2022-11-23T10:39:21.364Z,11.70
2022-11-23T10:41:49.743Z,12.00
2022-11-23T10:44:34.666Z,11.90
2022-11-23T10:47:02.068Z,11.90
2022-11-23T10:49:35.881Z,12.00
2022-11-23T10:52:23.569Z,12.00
2022-11-23T10:54:55.512Z,12.00
2022-11-23T10:57:28.592Z,12.00
2022-11-23T11:00:15.577Z,12.00
2022-11-23T11:02:51.193Z,11.60
2022-11-23T11:05:46.393Z,12.00
2022-11-23T11:08:16.962Z,12.00
2022-11-23T11:10:50.240Z,12.10
2022-11-23T11:13:46.787Z,12.20
2022-11-23T11:16:35.072Z,12.20
2022-11-23T11:19:21.702Z,12.30
2022-11-23T11:21:48.632Z,12.30
2022-11-23T11:24:23.355Z,12.30
2022-11-23T11:26:58.707Z,12.40
2022-11-23T11:29:38.293Z,12.40
2022-11-23T11:32:17.905Z,12.60
2022-11-23T11:35:26.550Z,12.40
2022-11-23T11:37:59.944Z,12.30
2022-11-23T11:40:48.191Z,12.20
2022-11-23T11:43:31.244Z,12.10
2022-11-23T11:46:29.040Z,12.00
2022-11-23T11:48:58.811Z,11.90
2022-11-23T11:51:28.008Z,11.80
2022-11-23T11:54:21.088Z,11.80
2022-11-23T11:56:54.782Z,11.80
2022-11-23T11:59:42.968Z,11.80
2022-11-23T12:02:33.944Z,11.70
2022-11-23T12:05:27.265Z,11.70
2022-11-23T12:08:18.828Z,11.70
2022-11-23T12:10:50.790Z,11.60
2022-11-23T12:13:32.401Z,11.50
2022-11-23T12:16:20.468Z,11.50
2022-11-23T12:18:59.757Z,11.40
2022-11-23T12:21:32.511Z,11.40
2022-11-23T12:24:27.863Z,11.20
2022-11-23T12:27:04.417Z,11.40
2022-11-23T12:29:39.269Z,11.50
2022-11-23T12:32:24.829Z,11.60
2022-11-23T12:35:17.938Z,11.70
2022-11-23T12:38:05.100Z,11.30
2022-11-23T12:40:58.056Z,12.00
2022-11-23T12:43:42.566Z,12.10
2022-11-23T12:46:28.968Z,12.10
2022-11-23T12:49:04.880Z,12.20
2022-11-23T12:51:53.185Z,12.20
2022-11-23T12:54:27.687Z,12.30
2022-11-23T12:56:58.609Z,12.30
2022-11-23T12:59:35.188Z,12.30
2022-11-23T13:02:12.759Z,12.30
2022-11-23T13:08:11.923Z,12.30
2022-11-23T13:10:54.248Z,12.30
2022-11-23T13:13:24.645Z,12.30
2022-11-23T13:16:24.447Z,12.30
2022-11-23T13:19:09.819Z,12.30
2022-11-23T13:21:45.466Z,12.30
2022-11-23T13:25:01.422Z,12.30
2022-11-23T13:27:31.561Z,12.30
2022-11-23T13:30:07.378Z,12.20
2022-11-23T13:32:39.208Z,12.20
2022-11-23T13:35:21.669Z,12.20
2022-11-23T13:38:14.704Z,12.10
2022-11-23T13:40:44.165Z,12.10
2022-11-23T13:43:30.353Z,12.10
2022-11-23T13:46:21.167Z,12.00
2022-11-23T13:48:58.529Z,11.90
2022-11-23T13:51:29.027Z,11.80
2022-11-23T13:54:19.474Z,11.80
2022-11-23T13:56:46.980Z,11.80
2022-11-23T13:59:28.483Z,11.60
2022-11-23T14:02:06.633Z,11.50
2022-11-23T14:04:34.968Z,11.40
2022-11-23T14:07:25.516Z,11.30
2022-11-23T14:10:16.681Z,11.30
2022-11-23T14:12:49.036Z,11.20
2022-11-23T14:15:19.599Z,11.10
2022-11-23T14:18:31.533Z,11.00
2022-11-23T14:21:31.417Z,10.90
2022-11-23T14:24:09.969Z,10.80
2022-11-23T14:27:23.759Z,10.80
2022-11-23T14:30:17.291Z,10.70
2022-11-23T14:33:05.642Z,10.60
2022-11-23T14:35:43.739Z,10.50
2022-11-23T14:38:39.297Z,10.60
2022-11-23T14:41:29.238Z,10.40
2022-11-23T14:44:00.144Z,10.30
2022-11-23T14:46:27.194Z,10.20
2022-11-23T14:49:05.684Z,10.20
2022-11-23T14:51:34.666Z,10.10
2022-11-23T14:54:08.238Z,10.30
2022-11-23T14:56:53.584Z,10.00
2022-11-23T14:59:28.363Z,10.30
2022-11-23T15:02:04.461Z,9.80
2022-11-23T15:04:36.729Z,9.80
2022-11-23T15:07:11.752Z,9.70
2022-11-23T15:09:58.841Z,9.60
2022-11-23T15:12:28.368Z,9.60
2022-11-23T15:14:57.734Z,9.70
2022-11-23T15:17:25.416Z,9.70
2022-11-23T15:19:55.400Z,9.30
2022-11-23T15:22:25.729Z,9.30
2022-11-23T15:24:53.424Z,9.20
2022-11-23T15:27:29.836Z,9.10
2022-11-23T15:29:58.893Z,9.10
2022-11-23T15:32:31.944Z,9.00
2022-11-23T15:35:07.957Z,8.90
2022-11-23T15:37:45.657Z,8.80
2022-11-23T15:40:17.865Z,9.00
2022-11-23T15:42:47.270Z,8.70
2022-11-23T15:45:53.334Z,8.70
2022-11-23T15:48:33.871Z,8.70
2022-11-23T15:51:04.628Z,8.60
2022-11-23T15:53:32.626Z,8.50
2022-11-23T15:56:02.434Z,8.50
2022-11-23T15:58:30.659Z,8.70
2022-11-23T16:01:17.213Z,8.40
2022-11-23T16:04:04.559Z,8.40
2022-11-23T16:06:42.294Z,8.40
2022-11-23T16:09:52.994Z,8.40
2022-11-23T16:12:25.916Z,8.30
2022-11-23T16:14:54.945Z,8.30
2022-11-23T16:17:29.472Z,8.20
2022-11-23T16:19:58.512Z,8.20
2022-11-23T16:22:30.359Z,8.20
2022-11-23T16:25:07.496Z,8.20
2022-11-23T16:27:35.608Z,8.10
2022-11-23T16:30:04.620Z,8.10
2022-11-23T16:32:32.285Z,8.10
2022-11-23T16:35:17.544Z,8.10
2022-11-23T16:37:44.664Z,8.00
2022-11-23T16:40:12.570Z,8.00
2022-11-23T16:42:39.497Z,7.90
2022-11-23T16:45:07.089Z,8.30
2022-11-23T16:47:34.620Z,7.90
2022-11-23T16:50:01.665Z,8.10
2022-11-23T16:52:28.716Z,7.80
2022-11-23T16:54:55.666Z,7.70
2022-11-23T16:57:34.852Z,7.90
2022-11-23T17:00:07.273Z,7.70
2022-11-23T17:02:34.368Z,7.60
2022-11-23T17:05:01.457Z,7.80
2022-11-23T17:07:28.462Z,7.50
2022-11-23T17:09:58.951Z,7.50
2022-11-23T17:12:25.999Z,7.50
2022-11-23T17:14:53.039Z,7.50
2022-11-23T17:17:41.960Z,7.50
2022-11-23T17:20:16.110Z,7.50
2022-11-23T17:22:43.914Z,7.50
2022-11-23T17:25:14.990Z,7.50
2022-11-23T17:27:43.688Z,7.40
2022-11-23T17:30:16.890Z,7.70
2022-11-23T17:32:43.852Z,7.30
2022-11-23T17:35:10.866Z,7.30
2022-11-23T17:37:38.072Z,7.30
2022-11-23T17:40:05.729Z,7.20
2022-11-23T17:42:32.581Z,7.20
2022-11-23T17:44:59.425Z,7.30
2022-11-23T17:47:29.643Z,7.10
2022-11-23T17:49:57.728Z,7.30
2022-11-23T17:52:25.360Z,7.10
2022-11-23T17:54:52.280Z,7.10
2022-11-23T17:57:25.405Z,7.30
2022-11-23T17:59:53.617Z,7.10
2022-11-23T18:02:21.068Z,7.10
2022-11-23T18:04:48.021Z,7.10
2022-11-23T18:07:16.230Z,7.10
2022-11-23T18:09:43.482Z,7.00
2022-11-23T18:12:10.686Z,7.40
2022-11-23T18:14:37.936Z,7.00
2022-11-23T18:17:04.800Z,7.00
2022-11-23T18:19:31.992Z,7.00
2022-11-23T18:21:59.258Z,6.90
2022-11-23T18:24:26.206Z,6.90
2022-11-23T18:26:53.145Z,6.90
2022-11-23T18:29:19.931Z,6.80
2022-11-23T18:31:46.773Z,6.80
2022-11-23T18:34:13.929Z,6.80
2022-11-23T18:36:40.849Z,6.70
2022-11-23T18:39:07.820Z,6.30
2022-11-23T18:41:34.701Z,6.80
2022-11-23T18:44:01.596Z,6.70
2022-11-23T18:46:29.417Z,6.70
2022-11-23T18:48:57.345Z,6.60
2022-11-23T18:51:24.249Z,6.80
2022-11-23T18:53:52.989Z,6.60
2022-11-23T18:56:19.805Z,6.80
2022-11-23T18:58:46.802Z,6.50
2022-11-23T19:01:19.898Z,6.40
2022-11-23T19:03:49.189Z,6.40
2022-11-23T19:06:18.352Z,6.40
2022-11-23T19:08:50.844Z,6.30
2022-11-23T19:11:23.049Z,6.30
2022-11-23T19:13:55.414Z,6.30
2022-11-23T19:16:24.705Z,6.50
2022-11-23T19:19:02.626Z,6.20
2022-11-23T19:21:31.505Z,6.20
2022-11-23T19:23:59.568Z,6.50
2022-11-23T19:26:28.223Z,6.10
2022-11-23T19:28:56.852Z,6.10
2022-11-23T19:31:28.928Z,6.30
2022-11-23T19:34:01.402Z,6.00
2022-11-23T19:36:30.604Z,6.00
2022-11-23T19:38:58.267Z,6.00
2022-11-23T19:41:29.910Z,5.70
2022-11-23T19:43:58.941Z,5.90
2022-11-23T19:46:26.304Z,5.90
2022-11-23T19:48:55.791Z,5.90
2022-11-23T19:51:23.602Z,5.90
2022-11-23T19:53:51.095Z,5.90
2022-11-23T19:56:25.900Z,6.10
2022-11-23T19:58:55.681Z,6.00
2022-11-23T20:01:24.729Z,5.80
2022-11-23T20:03:53.652Z,6.10
2022-11-23T20:06:28.117Z,6.10
2022-11-23T20:09:04.407Z,6.20
2022-11-23T20:11:32.583Z,5.80
2022-11-23T20:14:00.286Z,5.80
2022-11-23T20:16:30.401Z,5.80
2022-11-23T20:19:02.766Z,5.70
2022-11-23T20:21:31.192Z,5.70
2022-11-23T20:24:04.713Z,5.80
2022-11-23T20:26:33.914Z,6.10
2022-11-23T20:29:05.098Z,5.70
2022-11-23T20:31:33.020Z,6.00
2022-11-23T20:34:00.557Z,5.80
2022-11-23T20:36:35.894Z,5.80
2022-11-23T20:39:05.710Z,5.80
2022-11-23T20:41:34.947Z,5.80
2022-11-23T20:44:07.286Z,5.80
2022-11-23T20:49:21.240Z,5.70
2022-11-23T20:51:48.157Z,6.10
2022-11-23T20:54:15.156Z,5.90
2022-11-23T20:56:42.041Z,5.70
2022-11-23T20:59:11.621Z,5.70
2022-11-23T21:01:40.471Z,5.70
2022-11-23T21:04:08.830Z,5.70
2022-11-23T21:06:39.276Z,5.70
2022-11-23T21:09:07.823Z,6.10
2022-11-23T21:11:53.152Z,5.70
2022-11-23T21:14:23.188Z,6.00
2022-11-23T21:16:56.070Z,5.60
2022-11-23T21:19:28.530Z,5.90
2022-11-23T21:21:57.058Z,6.00
2022-11-23T21:24:24.552Z,5.60
2022-11-23T21:26:51.518Z,5.60
2022-11-23T21:29:19.084Z,5.90
2022-11-23T21:31:47.716Z,5.50
2022-11-23T21:34:23.068Z,5.60
2022-11-23T21:36:50.530Z,5.50
2022-11-23T21:39:17.902Z,5.50
2022-11-23T21:41:45.247Z,5.80
2022-11-23T21:44:12.862Z,5.50
2022-11-23T21:46:40.981Z,5.80
2022-11-23T21:49:08.561Z,5.70
2022-11-23T21:51:36.741Z,5.80
2022-11-23T21:54:06.441Z,6.10
2022-11-23T21:56:33.831Z,5.90
2022-11-23T21:59:00.677Z,6.30
2022-11-23T22:01:33.233Z,6.00
2022-11-23T22:04:06.303Z,5.80
2022-11-23T22:06:33.296Z,6.10
2022-11-23T22:09:00.322Z,6.20
2022-11-23T22:11:32.368Z,6.20
2022-11-23T22:14:04.860Z,6.30
2022-11-23T22:16:36.869Z,5.90
2022-11-23T22:19:05.216Z,6.40
2022-11-23T22:21:34.381Z,6.50
2022-11-23T22:24:02.172Z,6.60
2022-11-23T22:26:29.301Z,6.60
2022-11-23T22:28:56.953Z,6.70
2022-11-23T22:31:25.643Z,6.70
2022-11-23T22:33:53.569Z,6.70
2022-11-23T22:36:22.973Z,6.80
2022-11-23T22:39:08.578Z,6.80
2022-11-23T22:41:39.152Z,6.80
2022-11-23T22:44:07.874Z,6.80
2022-11-23T22:46:36.812Z,6.90
2022-11-23T22:49:04.528Z,6.90
2022-11-23T22:51:31.639Z,6.90
2022-11-23T22:54:00.209Z,7.00
2022-11-23T22:56:28.947Z,7.00
2022-11-23T22:58:56.351Z,7.10
2022-11-23T23:01:26.573Z,7.10
2022-11-23T23:03:55.779Z,7.20
2022-11-23T23:06:28.573Z,7.20
2022-11-23T23:08:57.635Z,7.20
2022-11-23T23:11:26.703Z,7.20
2022-11-23T23:13:53.942Z,7.20
2022-11-23T23:16:21.315Z,7.20
2022-11-23T23:18:48.665Z,7.20
2022-11-23T23:21:17.875Z,7.20
2022-11-23T23:23:47.260Z,7.20
2022-11-23T23:26:15.999Z,7.20
2022-11-23T23:28:43.565Z,7.20
2022-11-23T23:31:13.008Z,7.20
2022-11-23T23:33:40.867Z,7.20
2022-11-23T23:36:13.613Z,7.20
2022-11-23T23:38:40.764Z,7.10
2022-11-23T23:41:09.093Z,7.10
2022-11-23T23:43:36.884Z,7.10
2022-11-23T23:46:06.734Z,7.10
2022-11-23T23:48:36.232Z,7.10
2022-11-23T23:51:14.029Z,7.20
2022-11-23T23:53:41.878Z,7.20
2022-11-23T23:56:16.096Z,7.10
2022-11-23T23:58:43.447Z,7.20
